IVAO ES Tour IFR-A 2013 Etapa 4

IVAO ES Tour IFR-A 2013 Etapa 4

La Palma ( GCLA ) – Lanzarote ( GCRR )

Datos generales del vuelo
 Fecha 20-11-2013  Avión  B737-800 winglets
 Ruta LTE  Nivel de vuelo FL230
 Origen GCLA  Destino GCRR
 Velocidad 300Knots  Distancia 230Nm
 Distancia real  218Nm ETE 00:40
 ETA 16:15  FOB 02:00
 Hora salida 15:25Z Hora llegada 16:20Z
 Pax 7 TOW 56927Kg
 MTOW  78471Kg Fuel 5953Kg
 Fuel utilizado 2529Kg ZFW 50976Kg
Peso carga  9072Kg Peso pasaje 488Kg
V1 117Knots Vr 127Knots
 V2 139Knots  Vref 136Knots

 

Datos GCLA

Metar: GCLA 201500Z 02006KT 350V060 9999 FEW050 23/13 Q1020
Salida: LTE3T

Datos GCRR

Metar: GCRR 201530Z 36015KT 9999 FEW040 23/12 Q1019
Llegada: n/a
App: Visual RWY03

 

 

 

IVAO ES Tour IFR-A 2013 Etapa 2

IVAO ES Tour IFR-A 2013 Etapa 2

Granada ( LEGR ) – Fuerteventura ( GCFV )

Datos generales del vuelo
 Fecha 19-11-2013  Avión  B737-800 winglets
 Ruta MAR G5 VJF UL82 IBALU UN857 AMETA UA857 TOVRA UN857 VEDOD UA857 TERTO  Nivel de vuelo FL370
 Origen LEGR  Destino  GCFV
 Velocidad M0.792  Distancia 729Nm
 Distancia real  729Nm ETE 01:55
 ETA 18:15  FOB 03:30
 Hora salida 16:05Z Hora llegada 18:10Z
 Pax 152 TOW
 MTOW Fuel 10048Kg
 Fuel utilizado 5457Kg ZFW
Peso carga Peso pasaje
V1 132Knots Vr 142Knots
 V2 151Knots  Vref 146Knots

 

Datos LEGR

Metar: LEGR 191530Z 29009KT 9999 FEW050 15/04 Q1012
Salida: MAR1V

Datos GCFV

Metar: GCFV 191730Z 36014KT 320V020 9999 FEW025 21/12 Q1019
Llegada: TERTO2S
App: ILS Y RWY01R transición TENDA

 

 

 

IVAO ES Tour IFR-A 2013 Etapa 1

IVAO ES Tour IFR-A 2013 Etapa 1

Bilbao ( LEBB ) – Granada ( LEGR )

Datos generales del vuelo
 Fecha 19-11-2013  Avión  B737-800 winglets
 Ruta  AMTOS UL864 NEA UN864 VULPE  Nivel de vuelo FL360
 Origen LEBB  Destino  LEGR
 Velocidad M0.785  Distancia 450Nm
 Distancia real  369Nm ETE 01:05
 ETA 10:40  FOB 02:30
 Hora salida 09:25Z Hora llegada 10:40Z
 Pax 149 TOW 65289Kg
 MTOW 78471Kg Fuel 7832Kg
 Fuel utilizado 3589Kg ZFW 57456Kg
Peso carga 4881Kg Peso pasaje 11165Kg
V1 128Knots Vr 138Knots
 V2 147Knots  Vref 145Knots

 

Datos LEBB

Metar: LEBB 190830Z VRB02KT 2500 RA FEW004 SCT012 BKN020 10/09 Q1013 TEMPO SHRA BKN025TCU
Salida: AMTO3C

Datos LEGR

Metar: LEGR 191000Z 30004KT 240V330 CAVOK 09/06 Q1014
Llegada: VULPE1D
App: Vectorizada